createdAt,value
2018-01-16T00:01:51.077Z,2.80
2018-01-16T00:04:18.759Z,2.80
2018-01-16T00:06:47.217Z,2.80
2018-01-16T00:09:14.836Z,2.80
2018-01-16T00:11:42.500Z,2.80
2018-01-16T00:14:10.155Z,2.90
2018-01-16T00:16:37.780Z,2.90
2018-01-16T00:19:06.240Z,2.90
2018-01-16T00:21:33.904Z,2.90
2018-01-16T00:24:01.537Z,2.90
2018-01-16T00:26:29.213Z,3.00
2018-01-16T00:28:56.892Z,2.90
2018-01-16T00:31:25.303Z,3.10
2018-01-16T00:33:52.979Z,3.10
2018-01-16T00:36:20.681Z,3.10
2018-01-16T00:38:48.320Z,3.10
2018-01-16T00:41:16.016Z,3.10
2018-01-16T00:43:44.448Z,3.20
2018-01-16T00:46:12.101Z,3.20
2018-01-16T00:48:39.764Z,3.30
2018-01-16T00:51:07.432Z,3.30
2018-01-16T00:53:36.121Z,3.30
2018-01-16T00:56:03.806Z,3.30
2018-01-16T00:58:31.455Z,3.40
2018-01-16T01:00:59.077Z,3.30
2018-01-16T01:03:26.760Z,3.40
2018-01-16T01:05:54.439Z,3.40
2018-01-16T01:08:22.072Z,3.30
2018-01-16T01:10:49.740Z,3.40
2018-01-16T01:13:17.395Z,3.50
2018-01-16T01:15:45.031Z,3.50
2018-01-16T01:18:12.699Z,3.50
2018-01-16T01:20:40.359Z,3.50
2018-01-16T01:23:07.984Z,3.60
2018-01-16T01:25:36.420Z,3.50
2018-01-16T01:28:04.072Z,3.50
2018-01-16T01:30:31.725Z,3.50
2018-01-16T01:32:59.389Z,3.50
2018-01-16T01:35:27.158Z,3.50
2018-01-16T01:37:54.823Z,3.50
2018-01-16T01:40:22.480Z,3.50
2018-01-16T01:42:50.180Z,3.50
2018-01-16T01:45:18.601Z,3.50
2018-01-16T01:47:46.272Z,3.40
2018-01-16T01:50:13.936Z,3.50
2018-01-16T01:52:41.813Z,3.50
2018-01-16T01:55:09.476Z,3.60
2018-01-16T01:57:37.136Z,3.60
2018-01-16T02:00:04.828Z,3.60
2018-01-16T02:02:32.533Z,3.60
2018-01-16T02:05:00.201Z,3.60
2018-01-16T02:07:27.825Z,3.60
2018-01-16T02:09:55.699Z,3.50
2018-01-16T02:12:23.365Z,3.50
2018-01-16T02:14:51.005Z,3.50
2018-01-16T02:17:19.432Z,3.60
2018-01-16T02:19:47.100Z,3.60
2018-01-16T02:22:14.724Z,3.80
2018-01-16T02:24:42.381Z,4.00
2018-01-16T02:27:10.064Z,4.10
2018-01-16T02:29:38.136Z,4.20
2018-01-16T02:32:05.801Z,4.40
2018-01-16T02:34:33.460Z,4.50
2018-01-16T02:37:01.113Z,4.70
2018-01-16T02:39:28.800Z,4.80
2018-01-16T02:41:56.537Z,4.90
2018-01-16T02:44:24.197Z,4.90
2018-01-16T02:46:51.893Z,5.00
2018-01-16T02:49:19.577Z,5.20
2018-01-16T02:51:47.302Z,5.20
2018-01-16T02:54:14.968Z,5.10
2018-01-16T02:56:42.644Z,5.10
2018-01-16T02:59:10.287Z,5.20
2018-01-16T03:01:37.965Z,5.30
2018-01-16T03:04:06.399Z,5.30
2018-01-16T03:06:34.040Z,5.30
2018-01-16T03:09:01.718Z,5.40
2018-01-16T03:11:29.420Z,5.40
2018-01-16T03:13:57.819Z,5.60
2018-01-16T03:16:26.242Z,5.70
2018-01-16T03:18:53.912Z,5.60
2018-01-16T03:21:21.537Z,5.80
2018-01-16T03:23:49.204Z,5.80
2018-01-16T03:26:16.872Z,5.90
2018-01-16T03:28:44.488Z,5.90
2018-01-16T03:31:12.901Z,6.00
2018-01-16T03:33:40.568Z,6.00
2018-01-16T03:36:08.211Z,6.00
2018-01-16T03:38:35.885Z,5.90
2018-01-16T03:41:03.545Z,5.90
2018-01-16T03:43:31.190Z,6.00
2018-01-16T03:45:58.853Z,6.00
2018-01-16T03:48:26.545Z,6.00
2018-01-16T03:50:54.184Z,6.00
2018-01-16T03:53:21.841Z,6.00
2018-01-16T03:55:49.591Z,6.10
2018-01-16T03:58:17.238Z,6.10
2018-01-16T04:00:45.653Z,6.00
2018-01-16T04:03:13.338Z,6.00
2018-01-16T04:05:40.996Z,6.10
2018-01-16T04:10:43.060Z,6.20
2018-01-16T04:13:10.728Z,6.20
2018-01-16T04:15:38.399Z,6.20
2018-01-16T04:18:06.045Z,6.30
2018-01-16T04:20:33.725Z,6.30
2018-01-16T04:23:01.404Z,6.30
2018-01-16T04:25:29.841Z,6.50
2018-01-16T04:27:57.511Z,6.50
2018-01-16T04:30:25.180Z,6.40
2018-01-16T04:32:52.821Z,6.50
2018-01-16T04:35:20.498Z,6.50
2018-01-16T04:37:48.176Z,6.50
2018-01-16T04:40:16.572Z,6.40
2018-01-16T04:42:44.237Z,6.40
2018-01-16T04:45:11.946Z,6.30
2018-01-16T04:47:39.590Z,6.30
2018-01-16T04:50:07.250Z,6.40
2018-01-16T04:52:34.920Z,6.40
2018-01-16T04:55:02.576Z,6.40
2018-01-16T04:57:30.275Z,6.30
2018-01-16T04:59:57.938Z,6.20
2018-01-16T05:02:25.576Z,6.10
2018-01-16T05:04:53.232Z,6.10
2018-01-16T05:07:20.910Z,6.10
2018-01-16T05:09:48.548Z,6.10
2018-01-16T05:12:16.208Z,6.10
2018-01-16T05:14:43.867Z,6.10
2018-01-16T05:17:11.493Z,6.00
2018-01-16T05:19:39.164Z,6.00
2018-01-16T05:22:06.841Z,6.00
2018-01-16T05:24:34.472Z,6.00
2018-01-16T05:27:02.145Z,6.00
2018-01-16T05:29:31.119Z,6.00
2018-01-16T05:31:58.751Z,6.00
2018-01-16T05:34:26.446Z,6.10
2018-01-16T05:36:54.104Z,6.20
2018-01-16T05:39:21.741Z,6.20
2018-01-16T05:41:50.183Z,6.30
2018-01-16T05:44:17.861Z,6.30
2018-01-16T05:46:45.500Z,6.40
2018-01-16T05:49:13.159Z,6.30
2018-01-16T05:51:40.890Z,6.30
2018-01-16T05:54:08.509Z,6.30
2018-01-16T05:56:36.953Z,6.10
2018-01-16T05:59:04.627Z,6.20
2018-01-16T06:01:32.273Z,6.20
2018-01-16T06:03:59.940Z,6.30
2018-01-16T06:06:28.386Z,6.30
2018-01-16T06:08:56.031Z,6.40
2018-01-16T06:11:23.707Z,6.40
2018-01-16T06:13:51.394Z,6.40
2018-01-16T06:16:19.096Z,6.50
2018-01-16T06:18:47.537Z,6.60
2018-01-16T06:21:15.208Z,6.60
2018-01-16T06:23:42.832Z,6.60
2018-01-16T06:26:10.488Z,6.50
2018-01-16T06:28:38.165Z,6.50
2018-01-16T06:31:05.827Z,6.60
2018-01-16T06:33:33.528Z,6.50
2018-01-16T06:36:01.219Z,6.50
2018-01-16T06:38:28.864Z,6.40
2018-01-16T06:40:57.291Z,6.50
2018-01-16T06:43:24.995Z,6.50
2018-01-16T06:45:53.401Z,6.60
2018-01-16T06:48:21.887Z,6.60
2018-01-16T06:50:49.561Z,6.60
2018-01-16T06:53:17.187Z,6.60
2018-01-16T06:55:44.848Z,6.60
2018-01-16T06:58:12.519Z,6.70
2018-01-16T07:00:40.152Z,6.70
2018-01-16T07:03:08.596Z,6.80
2018-01-16T07:05:36.287Z,6.80
2018-01-16T07:08:03.912Z,6.80
2018-01-16T07:10:31.614Z,6.80
2018-01-16T07:13:00.054Z,7.00
2018-01-16T07:15:27.703Z,7.00
2018-01-16T07:17:56.304Z,7.00
2018-01-16T07:20:23.965Z,7.10
2018-01-16T07:22:51.606Z,7.20
2018-01-16T07:25:19.266Z,7.20
2018-01-16T07:27:46.922Z,7.30
2018-01-16T07:30:14.614Z,7.20
2018-01-16T07:32:42.357Z,7.30
2018-01-16T07:35:10.023Z,7.20
2018-01-16T07:37:37.659Z,7.30
2018-01-16T07:40:05.340Z,7.40
2018-01-16T07:42:32.991Z,7.50
2018-01-16T07:45:00.612Z,7.60
2018-01-16T07:47:28.266Z,7.50
2018-01-16T07:49:56.692Z,7.60
2018-01-16T07:52:24.334Z,7.60
2018-01-16T07:54:51.984Z,7.70
2018-01-16T07:57:19.708Z,7.80
2018-01-16T07:59:47.372Z,7.80
2018-01-16T08:02:15.806Z,8.00
2018-01-16T08:04:43.468Z,7.90
2018-01-16T08:07:11.127Z,8.10
2018-01-16T08:09:38.796Z,8.10
2018-01-16T08:12:06.464Z,8.10
2018-01-16T08:14:34.091Z,8.20
2018-01-16T08:17:01.782Z,8.20
2018-01-16T08:19:29.452Z,8.10
2018-01-16T08:21:57.127Z,8.10
2018-01-16T08:24:25.597Z,8.20
2018-01-16T08:26:53.296Z,8.20
2018-01-16T08:29:20.965Z,8.10
2018-01-16T08:31:48.632Z,8.10
2018-01-16T08:34:16.311Z,8.10
2018-01-16T08:36:43.994Z,8.20
2018-01-16T08:39:11.684Z,8.30
2018-01-16T08:41:40.162Z,8.40
2018-01-16T08:44:07.832Z,8.40
2018-01-16T08:46:37.020Z,8.60
2018-01-16T08:49:05.459Z,8.80
2018-01-16T08:51:33.134Z,8.80
2018-01-16T08:54:00.868Z,8.90
2018-01-16T08:56:28.558Z,8.90
2018-01-16T08:58:56.209Z,8.90
2018-01-16T09:01:23.909Z,9.00
2018-01-16T09:03:52.341Z,8.80
2018-01-16T09:06:20.020Z,8.80
2018-01-16T09:08:47.712Z,8.70
2018-01-16T09:11:16.140Z,8.50
2018-01-16T09:13:43.772Z,8.50
2018-01-16T09:16:11.424Z,8.50
2018-01-16T09:18:39.135Z,8.50
2018-01-16T09:21:06.764Z,8.40
2018-01-16T09:23:34.430Z,8.20
2018-01-16T09:26:02.117Z,7.90
2018-01-16T09:28:29.764Z,7.40
2018-01-16T09:30:57.428Z,7.10
2018-01-16T09:33:25.136Z,7.00
2018-01-16T09:35:52.756Z,7.00
2018-01-16T09:38:20.435Z,7.00
2018-01-16T09:40:48.878Z,7.10
2018-01-16T09:43:16.536Z,7.10
2018-01-16T09:45:44.204Z,7.10
2018-01-16T09:48:11.872Z,7.20
2018-01-16T09:50:39.525Z,7.30
2018-01-16T09:53:07.205Z,7.30
2018-01-16T09:55:34.872Z,7.40
2018-01-16T09:58:03.288Z,7.40
2018-01-16T10:00:30.939Z,7.40
2018-01-16T10:02:58.611Z,7.40
2018-01-16T10:05:26.240Z,7.50
2018-01-16T10:07:54.676Z,7.60
2018-01-16T10:10:22.366Z,7.60
2018-01-16T10:12:50.044Z,7.70
2018-01-16T10:15:18.468Z,8.10
2018-01-16T10:17:46.135Z,8.10
2018-01-16T10:20:13.787Z,8.20
2018-01-16T10:22:41.437Z,8.30
2018-01-16T10:25:09.132Z,8.40
2018-01-16T10:27:36.799Z,8.40
2018-01-16T10:30:04.553Z,8.50
2018-01-16T10:32:32.237Z,8.50
2018-01-16T10:35:00.651Z,8.50
2018-01-16T10:37:28.326Z,8.40
2018-01-16T10:39:55.997Z,8.50
2018-01-16T10:42:23.635Z,8.40
2018-01-16T10:44:51.306Z,8.40
2018-01-16T10:47:18.967Z,8.40
2018-01-16T10:49:46.595Z,8.40
2018-01-16T10:52:14.258Z,8.40
2018-01-16T10:54:41.923Z,8.40
2018-01-16T10:57:09.555Z,8.30
2018-01-16T10:59:38.079Z,8.20
2018-01-16T11:02:06.524Z,8.20
2018-01-16T11:04:34.929Z,8.30
2018-01-16T11:07:02.588Z,8.30
2018-01-16T11:09:30.262Z,8.30
2018-01-16T11:11:57.908Z,8.30
2018-01-16T11:14:25.584Z,8.30
2018-01-16T11:16:53.252Z,8.20
2018-01-16T11:19:20.890Z,8.20
2018-01-16T11:21:48.577Z,8.20
2018-01-16T11:24:16.255Z,8.10
2018-01-16T11:26:43.898Z,8.00
2018-01-16T11:29:11.555Z,7.90
2018-01-16T11:31:39.218Z,7.70
2018-01-16T11:34:06.856Z,7.50
2018-01-16T11:36:34.532Z,7.30
2018-01-16T11:39:02.219Z,7.20
2018-01-16T11:41:29.853Z,7.10
2018-01-16T11:43:57.577Z,7.10
2018-01-16T11:46:25.245Z,7.20
2018-01-16T11:48:52.871Z,7.20
2018-01-16T11:51:20.555Z,7.30
2018-01-16T11:53:48.216Z,7.40
2018-01-16T11:56:15.873Z,7.40
2018-01-16T11:58:43.537Z,7.40
2018-01-16T12:01:11.225Z,7.50
2018-01-16T12:03:38.853Z,7.60
2018-01-16T12:06:07.333Z,7.50
2018-01-16T12:08:35.769Z,7.60
2018-01-16T12:11:03.397Z,7.60
2018-01-16T12:13:31.083Z,7.60
2018-01-16T12:15:58.765Z,7.50
2018-01-16T12:18:26.398Z,7.30
2018-01-16T12:20:54.132Z,7.10
2018-01-16T12:23:21.813Z,6.90
2018-01-16T12:25:49.447Z,6.70
2018-01-16T12:28:17.112Z,6.60
2018-01-16T12:30:44.823Z,6.50
2018-01-16T12:33:12.501Z,6.50
2018-01-16T12:35:40.936Z,6.50
2018-01-16T12:38:08.645Z,6.50
2018-01-16T12:40:36.264Z,6.60
2018-01-16T12:43:03.937Z,6.60
2018-01-16T12:45:31.609Z,6.50
2018-01-16T12:47:59.245Z,6.60
2018-01-16T12:50:26.912Z,6.60
2018-01-16T12:52:54.577Z,6.60
2018-01-16T12:55:22.213Z,6.70
2018-01-16T12:57:49.877Z,6.80
2018-01-16T13:00:17.592Z,6.90
2018-01-16T13:02:45.994Z,6.90
2018-01-16T13:05:13.665Z,6.90
2018-01-16T13:07:41.327Z,6.90
2018-01-16T13:10:08.958Z,6.80
2018-01-16T13:12:36.621Z,6.80
2018-01-16T13:15:04.309Z,6.80
2018-01-16T13:17:31.940Z,6.90
2018-01-16T13:19:59.614Z,7.00
2018-01-16T13:22:27.320Z,7.00
2018-01-16T13:24:55.105Z,7.10
2018-01-16T13:27:23.541Z,7.10
2018-01-16T13:29:51.196Z,7.10
2018-01-16T13:32:18.832Z,7.10
2018-01-16T13:34:46.521Z,6.90
2018-01-16T13:37:14.195Z,6.90
2018-01-16T13:39:41.853Z,6.90
2018-01-16T13:42:09.521Z,6.90
2018-01-16T13:44:37.192Z,6.80
2018-01-16T13:47:04.846Z,6.80
2018-01-16T13:49:32.561Z,6.80
2018-01-16T13:52:00.224Z,6.90
2018-01-16T13:54:27.856Z,6.90
2018-01-16T13:56:55.572Z,6.90
2018-01-16T13:59:23.255Z,6.90
2018-01-16T14:01:50.896Z,7.00
2018-01-16T14:04:18.567Z,7.00
2018-01-16T14:06:46.242Z,7.00
2018-01-16T14:09:14.657Z,6.70
2018-01-16T14:11:42.316Z,6.70
2018-01-16T14:14:09.996Z,6.60
2018-01-16T14:16:37.639Z,6.40
2018-01-16T14:19:05.347Z,6.30
2018-01-16T14:21:33.069Z,6.20
2018-01-16T14:24:00.752Z,6.10
2018-01-16T14:26:28.428Z,5.90
2018-01-16T14:28:56.091Z,5.00
2018-01-16T14:31:23.713Z,4.50
2018-01-16T14:33:51.370Z,4.10
2018-01-16T14:36:19.033Z,3.90
2018-01-16T14:38:46.682Z,3.80
2018-01-16T14:41:14.360Z,3.70
2018-01-16T14:43:42.051Z,3.70
2018-01-16T14:46:09.688Z,3.60
2018-01-16T14:48:37.417Z,3.50
2018-01-16T14:51:05.089Z,3.50
2018-01-16T14:53:32.738Z,3.50
2018-01-16T14:56:00.405Z,3.50
2018-01-16T14:58:28.083Z,3.60
2018-01-16T15:00:55.715Z,3.60
2018-01-16T15:03:23.405Z,3.60
2018-01-16T15:05:51.134Z,3.60
2018-01-16T15:08:18.842Z,3.60
2018-01-16T15:10:46.508Z,3.70
2018-01-16T15:13:15.099Z,3.70
2018-01-16T15:15:42.740Z,3.80
2018-01-16T15:18:10.424Z,3.80
2018-01-16T15:20:38.118Z,3.70
2018-01-16T15:23:05.753Z,3.80
2018-01-16T15:25:35.024Z,3.80
2018-01-16T15:28:02.693Z,3.80
2018-01-16T15:30:30.377Z,3.80
2018-01-16T15:32:59.039Z,3.70
2018-01-16T15:35:27.498Z,3.70
2018-01-16T15:37:55.133Z,3.60
2018-01-16T15:40:22.805Z,3.70
2018-01-16T15:42:50.581Z,3.70
2018-01-16T15:45:18.672Z,3.60
2018-01-16T15:47:46.340Z,3.50
2018-01-16T15:50:14.006Z,3.50
2018-01-16T15:52:41.636Z,3.40
2018-01-16T15:55:09.317Z,3.40
2018-01-16T15:57:37.004Z,3.40
2018-01-16T16:00:05.457Z,3.40
2018-01-16T16:02:33.121Z,3.40
2018-01-16T16:05:00.790Z,3.40
2018-01-16T16:07:29.205Z,3.30
2018-01-16T16:09:56.900Z,3.30
2018-01-16T16:12:24.551Z,3.30
2018-01-16T16:14:52.197Z,3.30
2018-01-16T16:17:19.872Z,3.30
2018-01-16T16:19:47.540Z,3.30
2018-01-16T16:22:15.173Z,3.30
2018-01-16T16:24:42.836Z,3.40
2018-01-16T16:27:10.523Z,3.40
2018-01-16T16:29:38.307Z,3.50
2018-01-16T16:32:05.989Z,3.60
2018-01-16T16:34:34.426Z,3.60
2018-01-16T16:37:02.063Z,3.70
2018-01-16T16:39:29.764Z,3.70
2018-01-16T16:41:57.444Z,3.70
2018-01-16T16:44:25.872Z,3.80
2018-01-16T16:46:53.556Z,3.80
2018-01-16T16:49:21.272Z,3.90
2018-01-16T16:51:48.903Z,3.90
2018-01-16T16:54:17.391Z,3.90
2018-01-16T16:56:45.825Z,3.90
2018-01-16T16:59:13.483Z,3.90
2018-01-16T17:01:41.158Z,3.90
2018-01-16T17:04:08.883Z,3.90
2018-01-16T17:06:36.530Z,3.90
2018-01-16T17:09:04.331Z,3.80
2018-01-16T17:11:31.990Z,3.80
2018-01-16T17:13:59.614Z,3.70
2018-01-16T17:16:27.293Z,3.70
2018-01-16T17:18:54.976Z,3.70
2018-01-16T17:21:22.620Z,3.70
2018-01-16T17:23:50.271Z,3.70
2018-01-16T17:26:17.991Z,3.70
2018-01-16T17:28:46.439Z,3.60
2018-01-16T17:31:14.104Z,3.60
2018-01-16T17:33:41.764Z,3.60
2018-01-16T17:36:09.414Z,3.60
2018-01-16T17:38:37.044Z,3.60
2018-01-16T17:41:04.705Z,3.50
2018-01-16T17:43:32.377Z,3.50
2018-01-16T17:45:59.992Z,3.50
2018-01-16T17:48:28.425Z,3.50
2018-01-16T17:50:56.079Z,3.50
2018-01-16T17:53:23.736Z,3.50
2018-01-16T17:55:51.414Z,3.60
2018-01-16T17:58:19.042Z,3.60
2018-01-16T18:00:46.705Z,3.60
2018-01-16T18:03:14.380Z,3.60
2018-01-16T18:05:42.039Z,3.60
2018-01-16T18:08:09.713Z,3.60
2018-01-16T18:10:37.341Z,3.60
2018-01-16T18:13:05.033Z,3.50
2018-01-16T18:15:32.679Z,3.50
2018-01-16T18:18:00.324Z,3.50
2018-01-16T18:20:27.976Z,3.50
2018-01-16T18:22:55.615Z,3.50
2018-01-16T18:25:24.104Z,3.60
2018-01-16T18:27:51.803Z,3.60
2018-01-16T18:30:19.469Z,3.60
2018-01-16T18:32:47.148Z,3.60
2018-01-16T18:35:14.789Z,3.60
2018-01-16T18:37:42.471Z,3.50
2018-01-16T18:40:10.113Z,3.50
2018-01-16T18:42:37.841Z,3.60
2018-01-16T18:45:05.512Z,3.60
2018-01-16T18:47:33.139Z,3.60
2018-01-16T18:50:00.792Z,3.60
2018-01-16T18:52:29.180Z,3.80
2018-01-16T18:54:56.852Z,3.80
2018-01-16T18:57:24.518Z,3.90
2018-01-16T18:59:52.193Z,3.90
2018-01-16T19:02:19.856Z,3.90
2018-01-16T19:04:47.488Z,4.00
2018-01-16T19:07:15.227Z,4.10
2018-01-16T19:09:43.676Z,3.90
2018-01-16T19:12:11.320Z,3.90
2018-01-16T19:14:38.989Z,3.80
2018-01-16T19:17:06.660Z,3.70
2018-01-16T19:19:34.350Z,3.60
2018-01-16T19:22:02.772Z,3.40
2018-01-16T19:24:30.418Z,3.40
2018-01-16T19:26:58.130Z,3.30
2018-01-16T19:29:25.764Z,3.30
2018-01-16T19:31:53.418Z,3.20
2018-01-16T19:34:21.075Z,3.10
2018-01-16T19:36:48.720Z,3.00
2018-01-16T19:39:16.437Z,2.90
2018-01-16T19:41:44.085Z,2.80
2018-01-16T19:44:11.776Z,2.70
2018-01-16T19:46:40.228Z,2.50
2018-01-16T19:49:07.898Z,2.50
2018-01-16T19:51:35.566Z,2.50
2018-01-16T19:54:04.008Z,2.40
2018-01-16T19:56:31.678Z,2.40
2018-01-16T19:58:59.348Z,2.40
2018-01-16T20:01:26.976Z,2.20
2018-01-16T20:03:54.693Z,2.20
2018-01-16T20:06:23.118Z,2.10
2018-01-16T20:08:50.811Z,2.00
2018-01-16T20:11:19.441Z,2.00
2018-01-16T20:13:47.069Z,1.90
2018-01-16T20:16:15.518Z,1.80
2018-01-16T20:18:43.194Z,1.80
2018-01-16T20:21:10.861Z,1.80
2018-01-16T20:23:39.327Z,1.70
2018-01-16T20:26:06.957Z,1.60
2018-01-16T20:28:34.621Z,1.70
2018-01-16T20:31:02.263Z,1.60
2018-01-16T20:33:29.944Z,1.60
2018-01-16T20:35:57.615Z,1.50
2018-01-16T20:38:25.303Z,1.60
2018-01-16T20:40:52.961Z,1.60
2018-01-16T20:43:21.378Z,1.50
2018-01-16T20:45:49.153Z,1.50
2018-01-16T20:48:16.817Z,1.60
2018-01-16T20:50:44.464Z,1.60
2018-01-16T20:53:12.122Z,1.60
2018-01-16T20:55:39.771Z,1.60
2018-01-16T20:58:07.439Z,1.70
2018-01-16T21:00:35.129Z,1.60
2018-01-16T21:03:02.800Z,1.70
2018-01-16T21:05:30.501Z,1.70
2018-01-16T21:07:58.125Z,1.70
2018-01-16T21:10:25.907Z,1.70
2018-01-16T21:12:53.648Z,1.70
2018-01-16T21:15:21.364Z,1.70
2018-01-16T21:17:49.119Z,1.60
2018-01-16T21:20:16.792Z,1.60
2018-01-16T21:22:44.441Z,1.50
2018-01-16T21:25:12.252Z,1.50
2018-01-16T21:27:39.977Z,1.50
2018-01-16T21:30:07.836Z,1.50
2018-01-16T21:32:35.553Z,1.50
2018-01-16T21:35:03.260Z,1.40
2018-01-16T21:37:31.954Z,1.40
2018-01-16T21:39:59.785Z,1.40
2018-01-16T21:42:28.306Z,1.40
2018-01-16T21:44:56.040Z,1.40
2018-01-16T21:47:23.818Z,1.40
2018-01-16T21:49:51.573Z,1.40
2018-01-16T21:52:19.266Z,1.40
2018-01-16T21:54:47.248Z,1.50
2018-01-16T21:57:15.050Z,1.40
2018-01-16T21:59:43.189Z,1.40
2018-01-16T22:02:11.211Z,1.40
2018-01-16T22:04:39.066Z,1.40
2018-01-16T22:07:07.001Z,1.30
2018-01-16T22:09:36.446Z,1.30
2018-01-16T22:12:05.185Z,1.40
2018-01-16T22:14:33.784Z,1.40
2018-01-16T22:17:03.568Z,1.40
2018-01-16T22:19:31.236Z,1.40
2018-01-16T22:21:59.020Z,1.40
2018-01-16T22:24:26.729Z,1.40
2018-01-16T22:26:54.402Z,1.40
2018-01-16T22:29:22.045Z,1.50
2018-01-16T22:31:49.743Z,1.50
2018-01-16T22:34:17.446Z,1.50
2018-01-16T22:36:45.392Z,1.50
2018-01-16T22:39:13.073Z,1.40
2018-01-16T22:41:40.725Z,1.40
2018-01-16T22:44:08.352Z,1.40
2018-01-16T22:46:36.792Z,1.40
2018-01-16T22:49:04.494Z,1.50
2018-01-16T22:51:32.184Z,1.50
2018-01-16T22:53:59.874Z,1.50
2018-01-16T22:56:27.533Z,1.50
2018-01-16T22:58:55.158Z,1.60
2018-01-16T23:01:22.856Z,1.60
2018-01-16T23:03:50.542Z,1.60
2018-01-16T23:06:18.179Z,1.70
2018-01-16T23:08:45.849Z,1.60
2018-01-16T23:11:13.559Z,1.60
2018-01-16T23:13:41.194Z,1.60
2018-01-16T23:16:09.642Z,1.70
2018-01-16T23:18:37.552Z,1.70
2018-01-16T23:21:06.138Z,1.70
2018-01-16T23:23:34.638Z,1.70
2018-01-16T23:26:03.300Z,1.60
2018-01-16T23:28:32.194Z,1.70
2018-01-16T23:31:00.648Z,1.60
2018-01-16T23:33:28.332Z,1.70
2018-01-16T23:35:56.052Z,1.70
2018-01-16T23:38:23.848Z,1.70
2018-01-16T23:40:51.550Z,1.70
2018-01-16T23:43:19.177Z,1.70
2018-01-16T23:45:46.852Z,1.70
2018-01-16T23:48:14.540Z,1.70
2018-01-16T23:50:42.196Z,1.70
2018-01-16T23:53:09.865Z,1.70
2018-01-16T23:55:37.521Z,1.80
2018-01-16T23:58:05.144Z,1.80
